createdAt,value
2023-08-02T00:02:20.844Z,1.57
2023-08-02T00:04:47.268Z,1.65
2023-08-02T00:07:13.675Z,1.45
2023-08-02T00:09:40.040Z,1.67
2023-08-02T00:12:06.450Z,1.63
2023-08-02T00:14:32.787Z,1.67
2023-08-02T00:16:59.221Z,1.55
2023-08-02T00:19:25.598Z,1.52
2023-08-02T00:21:51.922Z,1.61
2023-08-02T00:24:18.266Z,1.55
2023-08-02T00:26:44.789Z,1.83
2023-08-02T00:29:11.306Z,1.70
2023-08-02T00:31:37.660Z,1.98
2023-08-02T00:34:04.014Z,1.72
2023-08-02T00:36:30.424Z,1.90
2023-08-02T00:38:56.784Z,1.76
2023-08-02T00:41:23.131Z,2.00
2023-08-02T00:43:49.472Z,1.82
2023-08-02T00:46:15.924Z,1.81
2023-08-02T00:48:42.367Z,2.05
2023-08-02T00:51:08.725Z,1.84
2023-08-02T00:53:35.088Z,1.89
2023-08-02T00:56:01.417Z,1.94
2023-08-02T00:58:27.744Z,1.72
2023-08-02T01:00:54.099Z,2.03
2023-08-02T01:03:20.456Z,2.07
2023-08-02T01:05:46.810Z,1.87
2023-08-02T01:08:13.171Z,1.94
2023-08-02T01:10:39.536Z,1.90
2023-08-02T01:13:05.891Z,2.12
2023-08-02T01:15:32.250Z,2.15
2023-08-02T01:17:58.616Z,2.02
2023-08-02T01:20:24.975Z,1.90
2023-08-02T01:22:51.366Z,2.05
2023-08-02T01:25:17.747Z,1.97
2023-08-02T01:27:44.079Z,2.23
2023-08-02T01:30:10.429Z,1.93
2023-08-02T01:32:36.786Z,1.89
2023-08-02T01:35:03.153Z,2.09
2023-08-02T01:37:29.520Z,2.08
2023-08-02T01:39:55.852Z,1.93
2023-08-02T01:42:22.169Z,1.83
2023-08-02T01:44:48.540Z,1.86
2023-08-02T01:47:14.875Z,2.06
2023-08-02T01:49:41.198Z,1.84
2023-08-02T01:52:07.568Z,2.09
2023-08-02T01:54:33.921Z,2.02
2023-08-02T01:57:00.250Z,1.95
2023-08-02T01:59:26.591Z,2.12
2023-08-02T02:01:52.926Z,1.84
2023-08-02T02:04:19.269Z,2.25
2023-08-02T02:06:45.794Z,2.03
2023-08-02T02:09:12.454Z,1.94
2023-08-02T02:11:38.805Z,2.02
2023-08-02T02:14:05.162Z,2.14
2023-08-02T02:16:31.495Z,2.03
2023-08-02T02:18:57.837Z,2.26
2023-08-02T02:21:24.193Z,2.35
2023-08-02T02:23:50.530Z,1.98
2023-08-02T02:26:16.880Z,2.36
2023-08-02T02:28:43.328Z,2.05
2023-08-02T02:31:09.650Z,2.18
2023-08-02T02:33:35.980Z,2.25
2023-08-02T02:36:02.341Z,2.26
2023-08-02T02:38:28.681Z,2.32
2023-08-02T02:40:55.031Z,2.32
2023-08-02T02:43:21.397Z,2.21
2023-08-02T02:45:47.743Z,2.07
2023-08-02T02:48:14.078Z,2.25
2023-08-02T02:50:41.588Z,2.23
2023-08-02T02:53:07.930Z,2.17
2023-08-02T02:55:34.258Z,2.40
2023-08-02T02:58:00.633Z,2.16
2023-08-02T03:00:26.970Z,2.39
2023-08-02T03:02:53.464Z,2.39
2023-08-02T03:05:19.910Z,2.31
2023-08-02T03:07:46.256Z,2.41
2023-08-02T03:10:12.585Z,2.38
2023-08-02T03:12:38.955Z,2.21
2023-08-02T03:15:05.296Z,2.68
2023-08-02T03:17:31.664Z,2.15
2023-08-02T03:19:58.031Z,2.06
2023-08-02T03:22:24.352Z,2.31
2023-08-02T03:24:50.681Z,2.50
2023-08-02T03:27:17.044Z,2.40
2023-08-02T03:29:43.397Z,2.38
2023-08-02T03:32:09.720Z,2.24
2023-08-02T03:34:36.060Z,2.29
2023-08-02T03:37:02.389Z,2.41
2023-08-02T03:39:28.863Z,2.39
2023-08-02T03:41:55.260Z,2.40
2023-08-02T03:44:21.608Z,2.43
2023-08-02T03:46:48.076Z,2.33
2023-08-02T03:49:14.549Z,2.54
2023-08-02T03:51:40.887Z,2.29
2023-08-02T03:54:07.220Z,2.35
2023-08-02T03:56:33.626Z,2.47
2023-08-02T03:59:00.009Z,2.50
2023-08-02T04:01:26.454Z,2.33
2023-08-02T04:03:52.921Z,2.30
2023-08-02T04:06:19.407Z,2.34
2023-08-02T04:08:45.758Z,2.65
2023-08-02T04:11:12.113Z,2.42
2023-08-02T04:13:38.458Z,2.38
2023-08-02T04:16:04.877Z,2.47
2023-08-02T04:18:31.317Z,2.56
2023-08-02T04:20:57.682Z,2.20
2023-08-02T04:23:24.025Z,2.12
2023-08-02T04:25:50.396Z,2.50
2023-08-02T04:28:16.737Z,2.42
2023-08-02T04:30:43.069Z,2.28
2023-08-02T04:33:09.521Z,2.06
2023-08-02T04:35:35.980Z,2.49
2023-08-02T04:38:02.358Z,2.40
2023-08-02T04:40:28.757Z,2.52
2023-08-02T04:42:55.138Z,2.12
2023-08-02T04:45:21.490Z,2.06
2023-08-02T04:47:47.879Z,2.12
2023-08-02T04:50:14.283Z,2.34
2023-08-02T04:52:40.622Z,2.14
2023-08-02T04:55:06.986Z,2.22
2023-08-02T04:57:33.329Z,2.24
2023-08-02T04:59:59.683Z,2.53
2023-08-02T05:02:26.086Z,2.28
2023-08-02T05:04:52.447Z,2.31
2023-08-02T05:07:18.792Z,2.24
2023-08-02T05:09:45.148Z,2.27
2023-08-02T05:12:11.489Z,2.29
2023-08-02T05:14:37.842Z,2.34
2023-08-02T05:17:04.201Z,2.46
2023-08-02T05:19:30.560Z,2.12
2023-08-02T05:21:56.912Z,2.12
2023-08-02T05:24:23.283Z,2.36
2023-08-02T05:26:49.627Z,2.24
2023-08-02T05:29:15.955Z,2.29
2023-08-02T05:31:42.618Z,2.54
2023-08-02T05:34:09.194Z,2.51
2023-08-02T05:36:35.528Z,2.44
2023-08-02T05:39:01.894Z,2.35
2023-08-02T05:41:28.233Z,2.32
2023-08-02T05:43:54.560Z,2.38
2023-08-02T05:46:21.034Z,2.68
2023-08-02T05:48:47.468Z,2.61
2023-08-02T05:51:13.810Z,2.53
2023-08-02T05:53:40.168Z,2.43
2023-08-02T05:56:06.500Z,2.26
2023-08-02T05:58:32.834Z,2.03
2023-08-02T06:00:59.218Z,2.35
2023-08-02T06:03:25.594Z,2.13
2023-08-02T06:05:51.997Z,2.35
2023-08-02T06:08:18.460Z,2.48
2023-08-02T06:10:44.797Z,2.50
2023-08-02T06:13:11.155Z,2.35
2023-08-02T06:15:37.552Z,2.53
2023-08-02T06:18:04.095Z,2.39
2023-08-02T06:20:30.479Z,2.39
2023-08-02T06:22:56.886Z,2.52
2023-08-02T06:25:23.249Z,2.44
2023-08-02T06:27:49.597Z,2.54
2023-08-02T06:30:15.982Z,2.48
2023-08-02T06:32:42.356Z,2.30
2023-08-02T06:35:08.703Z,2.48
2023-08-02T06:37:35.068Z,2.46
2023-08-02T06:40:01.398Z,2.35
2023-08-02T06:42:27.749Z,2.36
2023-08-02T06:44:54.171Z,2.40
2023-08-02T06:47:20.523Z,2.43
2023-08-02T06:49:46.856Z,2.51
2023-08-02T06:52:13.272Z,2.12
2023-08-02T06:54:39.613Z,2.78
2023-08-02T06:57:05.941Z,2.67
2023-08-02T06:59:32.309Z,2.59
2023-08-02T07:01:58.650Z,2.81
2023-08-02T07:04:25.008Z,2.43
2023-08-02T07:06:51.388Z,2.65
2023-08-02T07:09:17.755Z,2.54
2023-08-02T07:11:44.109Z,2.70
2023-08-02T07:14:10.606Z,2.60
2023-08-02T07:16:37.009Z,2.69
2023-08-02T07:19:03.370Z,2.56
2023-08-02T07:21:29.734Z,2.56
2023-08-02T07:23:56.087Z,2.87
2023-08-02T07:26:22.681Z,2.70
2023-08-02T07:28:49.092Z,2.71
2023-08-02T07:31:15.461Z,2.58
2023-08-02T07:33:41.835Z,2.34
2023-08-02T07:36:08.196Z,2.71
2023-08-02T07:38:34.549Z,2.61
2023-08-02T07:41:00.907Z,2.67
2023-08-02T07:43:27.353Z,2.44
2023-08-02T07:45:53.714Z,2.93
2023-08-02T07:48:20.069Z,3.13
2023-08-02T07:50:46.435Z,2.95
2023-08-02T07:53:12.777Z,2.93
2023-08-02T07:55:39.126Z,3.00
2023-08-02T07:58:05.539Z,3.02
2023-08-02T08:00:31.898Z,3.06
2023-08-02T08:02:58.276Z,3.36
2023-08-02T08:05:24.675Z,3.18
2023-08-02T08:07:51.025Z,3.45
2023-08-02T08:10:17.365Z,3.37
2023-08-02T08:12:43.753Z,3.23
2023-08-02T08:15:10.126Z,3.45
2023-08-02T08:17:36.534Z,3.35
2023-08-02T08:20:02.913Z,3.52
2023-08-02T08:22:29.264Z,3.70
2023-08-02T08:24:55.624Z,3.67
2023-08-02T08:27:22.126Z,3.71
2023-08-02T08:29:48.489Z,3.67
2023-08-02T08:32:14.857Z,3.60
2023-08-02T08:34:41.258Z,3.87
2023-08-02T08:37:07.595Z,4.04
2023-08-02T08:39:33.951Z,4.41
2023-08-02T08:42:00.327Z,4.08
2023-08-02T08:44:26.658Z,4.03
2023-08-02T08:46:52.994Z,3.98
2023-08-02T08:49:19.872Z,3.83
2023-08-02T08:51:46.222Z,3.62
2023-08-02T08:54:12.561Z,4.08
2023-08-02T08:56:38.955Z,3.77
2023-08-02T08:59:05.366Z,3.84
2023-08-02T09:01:31.792Z,3.72
2023-08-02T09:03:58.344Z,3.42
2023-08-02T09:06:24.745Z,3.64
2023-08-02T09:08:51.229Z,3.83
2023-08-02T09:11:17.591Z,3.58
2023-08-02T09:13:43.925Z,3.75
2023-08-02T09:16:10.283Z,3.39
2023-08-02T09:18:36.693Z,3.44
2023-08-02T09:21:03.036Z,3.38
2023-08-02T09:23:29.377Z,3.28
2023-08-02T09:25:55.731Z,3.00
2023-08-02T09:28:22.069Z,3.11
2023-08-02T09:30:48.416Z,2.83
2023-08-02T09:33:14.819Z,2.89
2023-08-02T09:35:41.225Z,2.99
2023-08-02T09:38:07.583Z,2.99
2023-08-02T09:40:33.953Z,3.12
2023-08-02T09:43:00.293Z,3.18
2023-08-02T09:45:26.640Z,2.96
2023-08-02T09:47:53.068Z,2.88
2023-08-02T09:50:19.626Z,3.25
2023-08-02T09:52:46.031Z,2.90
2023-08-02T09:55:12.396Z,3.10
2023-08-02T09:57:38.729Z,3.01
2023-08-02T10:00:05.077Z,2.70
2023-08-02T10:02:31.487Z,3.08
2023-08-02T10:04:57.943Z,3.12
2023-08-02T10:07:24.316Z,3.07
2023-08-02T10:09:50.713Z,3.06
2023-08-02T10:12:17.048Z,2.94
2023-08-02T10:14:43.389Z,3.12
2023-08-02T10:17:09.744Z,2.79
2023-08-02T10:19:36.092Z,3.04
2023-08-02T10:22:02.431Z,2.93
2023-08-02T10:24:28.786Z,2.85
2023-08-02T10:26:55.125Z,2.72
2023-08-02T10:29:21.499Z,2.54
2023-08-02T10:31:47.867Z,2.80
2023-08-02T10:34:14.194Z,2.90
2023-08-02T10:36:40.845Z,2.70
2023-08-02T10:39:07.390Z,2.92
2023-08-02T10:41:33.725Z,2.74
2023-08-02T10:44:00.071Z,2.93
2023-08-02T10:46:26.560Z,2.94
2023-08-02T10:48:53.011Z,2.87
2023-08-02T10:51:19.354Z,2.64
2023-08-02T10:53:45.731Z,3.03
2023-08-02T10:56:12.069Z,2.72
2023-08-02T10:58:38.411Z,2.98
2023-08-02T11:01:04.807Z,2.66
2023-08-02T11:03:31.160Z,2.75
2023-08-02T11:05:57.499Z,2.76
2023-08-02T11:08:23.859Z,2.69
2023-08-02T11:10:50.215Z,2.52
2023-08-02T11:13:16.556Z,2.57
2023-08-02T11:15:42.959Z,2.54
2023-08-02T11:18:10.621Z,2.69
2023-08-02T11:20:37.482Z,2.62
2023-08-02T11:23:03.902Z,2.86
2023-08-02T11:27:59.475Z,2.71
2023-08-02T11:30:30.411Z,2.83
2023-08-02T11:32:57.179Z,2.75
2023-08-02T11:35:23.522Z,2.80
2023-08-02T11:37:49.906Z,2.84
2023-08-02T11:40:25.806Z,2.95
2023-08-02T11:42:53.027Z,2.78
2023-08-02T11:47:50.884Z,2.91
2023-08-02T11:50:19.953Z,2.72
2023-08-02T11:52:46.334Z,2.42
2023-08-02T11:55:12.659Z,2.80
2023-08-02T11:57:39.025Z,2.31
2023-08-02T12:00:05.364Z,2.40
2023-08-02T12:02:31.744Z,2.47
2023-08-02T12:04:58.125Z,2.44
2023-08-02T12:07:24.483Z,2.64
2023-08-02T12:09:50.826Z,2.46
2023-08-02T12:12:17.175Z,2.61
2023-08-02T12:14:43.522Z,2.46
2023-08-02T12:17:09.922Z,2.41
2023-08-02T12:19:36.308Z,2.46
2023-08-02T12:22:02.645Z,2.43
2023-08-02T12:24:29.058Z,2.47
2023-08-02T12:26:55.434Z,2.43
2023-08-02T12:29:21.776Z,2.42
2023-08-02T12:31:48.232Z,2.85
2023-08-02T12:34:14.663Z,2.65
2023-08-02T12:36:41.614Z,2.79
2023-08-02T12:39:08.244Z,2.93
2023-08-02T12:41:34.604Z,3.05
2023-08-02T12:44:04.202Z,2.94
2023-08-02T12:46:31.840Z,2.61
2023-08-02T12:48:58.216Z,2.65
2023-08-02T12:51:24.605Z,2.77
2023-08-02T12:53:50.947Z,2.81
2023-08-02T12:56:17.304Z,2.74
2023-08-02T12:58:43.641Z,2.81
2023-08-02T13:01:09.994Z,2.59
2023-08-02T13:03:36.395Z,2.67
2023-08-02T13:06:02.845Z,2.79
2023-08-02T13:08:32.279Z,2.79
2023-08-02T13:10:58.654Z,2.63
2023-08-02T13:13:24.989Z,2.89
2023-08-02T13:15:51.377Z,3.00
2023-08-02T13:18:17.756Z,2.76
2023-08-02T13:20:44.102Z,3.07
2023-08-02T13:23:10.454Z,2.94
2023-08-02T13:25:36.853Z,2.94
2023-08-02T13:28:03.192Z,2.95
2023-08-02T13:30:29.627Z,2.99
2023-08-02T13:32:56.073Z,3.15
2023-08-02T13:35:22.469Z,3.08
2023-08-02T13:37:48.828Z,3.05
2023-08-02T13:40:15.212Z,3.24
2023-08-02T13:42:41.550Z,3.14
2023-08-02T13:45:07.916Z,2.92
2023-08-02T13:47:34.298Z,2.87
2023-08-02T13:50:00.690Z,3.17
2023-08-02T13:52:27.070Z,2.90
2023-08-02T13:54:53.431Z,2.95
2023-08-02T13:57:19.770Z,2.76
2023-08-02T13:59:46.127Z,2.86
2023-08-02T14:02:12.516Z,3.18
2023-08-02T14:04:38.886Z,2.94
2023-08-02T14:07:05.302Z,3.23
2023-08-02T14:09:31.722Z,3.11
2023-08-02T14:11:58.057Z,3.30
2023-08-02T14:14:24.388Z,2.96
2023-08-02T14:16:51.004Z,2.95
2023-08-02T14:19:17.565Z,2.89
2023-08-02T14:21:43.934Z,2.97
2023-08-02T14:24:10.294Z,3.35
2023-08-02T14:26:36.631Z,3.07
2023-08-02T14:29:02.968Z,3.23
2023-08-02T14:31:29.445Z,3.10
2023-08-02T14:33:55.825Z,3.18
2023-08-02T14:36:22.158Z,3.03
2023-08-02T14:38:48.519Z,3.05
2023-08-02T14:41:14.855Z,3.08
2023-08-02T14:43:41.187Z,3.33
2023-08-02T14:46:07.556Z,3.14
2023-08-02T14:48:33.902Z,3.23
2023-08-02T14:51:00.239Z,3.30
2023-08-02T14:53:26.607Z,3.20
2023-08-02T14:55:53.005Z,3.05
2023-08-02T14:58:19.356Z,3.61
2023-08-02T15:00:45.730Z,3.23
2023-08-02T15:03:12.134Z,2.95
2023-08-02T15:05:42.464Z,3.18
2023-08-02T15:08:09.118Z,3.02
2023-08-02T15:10:35.487Z,3.17
2023-08-02T15:13:01.909Z,3.19
2023-08-02T15:15:28.257Z,3.10
2023-08-02T15:17:54.642Z,3.40
2023-08-02T15:20:21.025Z,3.19
2023-08-02T15:22:47.375Z,3.15
2023-08-02T15:25:13.719Z,3.07
2023-08-02T15:27:40.067Z,3.07
2023-08-02T15:30:06.416Z,3.07
2023-08-02T15:32:32.780Z,3.07
2023-08-02T15:34:59.173Z,3.17
2023-08-02T15:37:25.583Z,3.12
2023-08-02T15:39:52.116Z,3.10
2023-08-02T15:42:18.477Z,3.18
2023-08-02T15:44:44.822Z,3.27
2023-08-02T15:47:11.162Z,3.17
2023-08-02T15:49:37.505Z,2.98
2023-08-02T15:52:03.886Z,2.94
2023-08-02T15:54:30.239Z,2.62
2023-08-02T15:56:56.607Z,2.59
2023-08-02T15:59:23.005Z,2.50
2023-08-02T16:01:49.369Z,2.73
2023-08-02T16:04:15.749Z,2.59
2023-08-02T16:06:42.536Z,2.77
2023-08-02T16:09:09.013Z,2.73
2023-08-02T16:11:35.365Z,2.83
2023-08-02T16:14:01.742Z,3.07
2023-08-02T16:16:28.099Z,3.12
2023-08-02T16:18:54.553Z,3.23
2023-08-02T16:21:20.922Z,3.16
2023-08-02T16:23:47.270Z,3.13
2023-08-02T16:26:13.613Z,3.44
2023-08-02T16:28:39.982Z,3.42
2023-08-02T16:31:06.371Z,3.13
2023-08-02T16:33:32.725Z,3.40
2023-08-02T16:35:59.082Z,3.31
2023-08-02T16:38:25.420Z,3.21
2023-08-02T16:40:51.781Z,3.24
2023-08-02T16:43:18.173Z,3.21
2023-08-02T16:45:44.517Z,3.31
2023-08-02T16:48:10.849Z,3.32
2023-08-02T16:50:37.238Z,3.23
2023-08-02T16:53:03.578Z,3.33
2023-08-02T16:55:29.933Z,3.53
2023-08-02T16:57:56.312Z,3.21
2023-08-02T17:00:22.653Z,3.48
2023-08-02T17:02:49.039Z,3.46
2023-08-02T17:05:15.427Z,3.64
2023-08-02T17:07:41.765Z,3.56
2023-08-02T17:10:08.114Z,3.46
2023-08-02T17:12:34.457Z,3.28
2023-08-02T17:15:00.788Z,3.07
2023-08-02T17:17:27.130Z,3.02
2023-08-02T17:19:53.496Z,3.38
2023-08-02T17:22:19.824Z,3.43
2023-08-02T17:24:46.182Z,3.51
2023-08-02T17:27:12.557Z,3.73
2023-08-02T17:29:38.910Z,3.58
2023-08-02T17:32:05.275Z,3.43
2023-08-02T17:34:31.615Z,3.06
2023-08-02T17:36:57.952Z,2.48
2023-08-02T17:39:24.281Z,2.52
2023-08-02T17:41:50.642Z,2.83
2023-08-02T17:44:16.982Z,2.94
2023-08-02T17:46:43.322Z,2.99
2023-08-02T17:49:09.707Z,2.97
2023-08-02T17:51:36.049Z,2.95
2023-08-02T17:54:02.378Z,3.23
2023-08-02T17:56:28.750Z,3.26
2023-08-02T17:58:55.096Z,3.05
2023-08-02T18:01:21.478Z,2.99
2023-08-02T18:03:47.877Z,2.45
2023-08-02T18:06:14.257Z,1.77
2023-08-02T18:08:40.700Z,1.57
2023-08-02T18:11:07.063Z,1.47
2023-08-02T18:13:33.427Z,1.42
2023-08-02T18:15:59.782Z,1.24
2023-08-02T18:18:26.192Z,1.31
2023-08-02T18:20:52.523Z,1.38
2023-08-02T18:23:18.862Z,1.24
2023-08-02T18:25:45.216Z,1.28
2023-08-02T18:28:11.552Z,1.48
2023-08-02T18:30:37.891Z,1.28
2023-08-02T18:33:04.268Z,1.31
2023-08-02T18:35:30.641Z,1.30
2023-08-02T18:37:56.987Z,1.31
2023-08-02T18:40:23.347Z,1.13
2023-08-02T18:42:49.695Z,1.43
2023-08-02T18:45:16.061Z,1.24
2023-08-02T18:47:42.408Z,1.27
2023-08-02T18:50:08.770Z,1.27
2023-08-02T18:52:35.155Z,1.24
2023-08-02T18:55:01.541Z,1.27
2023-08-02T18:57:27.902Z,1.34
2023-08-02T18:59:54.229Z,1.46
2023-08-02T19:02:20.631Z,1.27
2023-08-02T19:04:47.036Z,1.12
2023-08-02T19:07:13.365Z,0.78
2023-08-02T19:09:39.717Z,0.94
2023-08-02T19:12:09.159Z,0.72
2023-08-02T19:14:35.504Z,0.77
2023-08-02T19:17:01.858Z,0.87
2023-08-02T19:19:28.212Z,0.46
2023-08-02T19:21:54.552Z,0.61
2023-08-02T19:24:20.910Z,0.40
2023-08-02T19:26:47.286Z,0.39
2023-08-02T19:29:13.635Z,0.38
2023-08-02T19:31:40.055Z,0.46
2023-08-02T19:34:06.430Z,0.38
2023-08-02T19:36:32.785Z,0.49
2023-08-02T19:38:59.167Z,0.49
2023-08-02T19:41:25.543Z,0.50
2023-08-02T19:43:51.882Z,0.53
2023-08-02T19:46:18.296Z,0.56
2023-08-02T19:48:44.665Z,0.76
2023-08-02T19:51:11.012Z,0.61
2023-08-02T19:53:37.382Z,0.64
2023-08-02T19:56:03.714Z,0.59
2023-08-02T19:58:30.050Z,0.72
2023-08-02T20:00:56.483Z,0.63
2023-08-02T20:03:22.883Z,0.72
2023-08-02T20:05:49.215Z,0.71
2023-08-02T20:08:15.573Z,0.71
2023-08-02T20:10:41.913Z,0.78
2023-08-02T20:13:08.244Z,0.72
2023-08-02T20:15:35.997Z,0.84
2023-08-02T20:18:03.034Z,0.80
2023-08-02T20:20:29.418Z,0.65
2023-08-02T20:22:55.774Z,0.69
2023-08-02T20:25:22.131Z,0.70
2023-08-02T20:27:48.489Z,0.66
2023-08-02T20:30:14.868Z,0.73
2023-08-02T20:32:41.208Z,0.56
2023-08-02T20:35:07.555Z,0.70
2023-08-02T20:37:33.995Z,0.62
2023-08-02T20:40:00.346Z,0.82
2023-08-02T20:42:26.726Z,0.69
2023-08-02T20:44:53.075Z,0.76
2023-08-02T20:47:19.400Z,0.71
2023-08-02T20:49:45.734Z,0.87
2023-08-02T20:52:12.107Z,0.88
2023-08-02T20:54:38.444Z,0.80
2023-08-02T20:57:04.779Z,0.87
2023-08-02T20:59:31.130Z,0.97
2023-08-02T21:01:57.478Z,1.12
2023-08-02T21:04:23.892Z,0.93
2023-08-02T21:07:05.455Z,1.05
2023-08-02T21:09:36.314Z,1.18
2023-08-02T21:12:02.674Z,1.12
2023-08-02T21:14:29.084Z,1.26
2023-08-02T21:16:55.532Z,0.99
2023-08-02T21:19:21.934Z,1.08
2023-08-02T21:21:48.321Z,1.18
2023-08-02T21:24:14.661Z,0.99
2023-08-02T21:26:41.010Z,1.01
2023-08-02T21:29:07.354Z,1.01
2023-08-02T21:31:50.458Z,1.07
2023-08-02T21:34:18.261Z,1.07
2023-08-02T21:36:44.594Z,1.03
2023-08-02T21:39:10.934Z,0.94
2023-08-02T21:41:37.328Z,0.91
2023-08-02T21:44:03.674Z,0.92
2023-08-02T21:46:30.069Z,0.93
2023-08-02T21:48:56.460Z,0.95
2023-08-02T21:51:22.809Z,1.05
2023-08-02T21:53:49.140Z,1.07
2023-08-02T21:56:15.506Z,1.03
2023-08-02T21:58:41.843Z,0.90
2023-08-02T22:01:08.181Z,0.93
2023-08-02T22:03:34.626Z,0.79
2023-08-02T22:06:01.057Z,1.10
2023-08-02T22:08:27.396Z,1.03
2023-08-02T22:10:53.787Z,0.95
2023-08-02T22:13:20.141Z,0.97
2023-08-02T22:15:46.580Z,1.13
2023-08-02T22:18:12.968Z,0.99
2023-08-02T22:20:39.318Z,1.03
2023-08-02T22:23:05.664Z,0.87
2023-08-02T22:25:32.028Z,0.78
2023-08-02T22:27:58.363Z,0.95
2023-08-02T22:30:24.700Z,0.92
2023-08-02T22:32:51.104Z,0.99
2023-08-02T22:35:17.484Z,1.16
2023-08-02T22:37:43.824Z,1.02
2023-08-02T22:40:10.183Z,1.20
2023-08-02T22:42:36.543Z,1.27
2023-08-02T22:45:02.881Z,1.35
2023-08-02T22:47:29.244Z,1.17
2023-08-02T22:50:51.055Z,1.24
2023-08-02T22:52:41.934Z,1.07
2023-08-02T22:55:08.278Z,1.12
2023-08-02T22:57:34.615Z,1.19
2023-08-02T23:00:00.979Z,1.15
2023-08-02T23:02:27.480Z,1.15
2023-08-02T23:04:53.940Z,1.11
2023-08-02T23:07:20.402Z,1.02
2023-08-02T23:09:46.737Z,1.19
2023-08-02T23:12:13.084Z,1.38
2023-08-02T23:14:39.489Z,1.21
2023-08-02T23:17:05.841Z,1.09
2023-08-02T23:19:32.192Z,1.30
2023-08-02T23:21:58.551Z,1.36
2023-08-02T23:24:24.884Z,1.20
2023-08-02T23:26:51.248Z,1.25
2023-08-02T23:29:17.619Z,1.27
2023-08-02T23:31:44.142Z,1.21
2023-08-02T23:34:10.800Z,1.33
2023-08-02T23:36:37.145Z,1.21
2023-08-02T23:39:03.500Z,1.19
2023-08-02T23:41:29.831Z,1.36
2023-08-02T23:43:56.219Z,1.53
2023-08-02T23:46:22.555Z,1.13
2023-08-02T23:48:48.899Z,1.38
2023-08-02T23:51:15.272Z,1.41
2023-08-02T23:53:41.644Z,1.36
2023-08-02T23:56:07.972Z,1.37
2023-08-02T23:58:34.347Z,1.42
